createdAt,value
2019-03-15T00:00:44.012Z,7.70
2019-03-15T00:03:15.393Z,7.70
2019-03-15T00:05:48.698Z,7.70
2019-03-15T00:08:18.653Z,7.70
2019-03-15T00:10:57.369Z,7.70
2019-03-15T00:13:29.589Z,7.70
2019-03-15T00:16:37.502Z,7.70
2019-03-15T00:19:04.353Z,7.60
2019-03-15T00:21:34.266Z,7.70
2019-03-15T00:24:04.427Z,7.70
2019-03-15T00:26:33.852Z,7.70
2019-03-15T00:29:06.824Z,7.70
2019-03-15T00:31:46.192Z,7.70
2019-03-15T00:34:17.000Z,7.70
2019-03-15T00:36:48.393Z,7.70
2019-03-15T00:39:18.188Z,7.70
2019-03-15T00:41:48.747Z,7.70
2019-03-15T00:44:18.204Z,7.70
2019-03-15T00:46:49.730Z,7.70
2019-03-15T00:49:23.288Z,7.70
2019-03-15T00:51:53.245Z,7.70
2019-03-15T00:54:22.855Z,7.70
2019-03-15T00:56:52.924Z,7.80
2019-03-15T00:59:25.571Z,7.70
2019-03-15T01:01:59.599Z,7.80
2019-03-15T01:04:48.498Z,7.80
2019-03-15T01:07:19.630Z,7.80
2019-03-15T01:09:49.853Z,7.90
2019-03-15T01:12:20.286Z,7.90
2019-03-15T01:14:53.368Z,8.00
2019-03-15T01:17:24.113Z,8.00
2019-03-15T01:20:02.853Z,8.00
2019-03-15T01:22:47.581Z,8.00
2019-03-15T01:25:36.198Z,7.90
2019-03-15T01:28:05.807Z,7.90
2019-03-15T01:30:35.257Z,7.90
2019-03-15T01:33:07.855Z,8.00
2019-03-15T01:35:38.667Z,8.00
2019-03-15T01:38:13.856Z,8.00
2019-03-15T01:40:48.887Z,8.00
2019-03-15T01:43:18.145Z,8.00
2019-03-15T01:45:51.124Z,8.00
2019-03-15T01:48:20.540Z,8.00
2019-03-15T01:50:50.844Z,8.10
2019-03-15T01:53:23.487Z,8.10
2019-03-15T01:55:53.764Z,8.10
2019-03-15T01:58:38.878Z,8.10
2019-03-15T02:01:12.597Z,8.00
2019-03-15T02:03:45.404Z,8.00
2019-03-15T02:06:30.750Z,8.10
2019-03-15T02:09:03.176Z,8.10
2019-03-15T02:11:39.627Z,8.20
2019-03-15T02:14:10.518Z,8.20
2019-03-15T02:17:00.565Z,8.20
2019-03-15T02:19:40.602Z,8.20
2019-03-15T02:22:16.320Z,8.20
2019-03-15T02:25:01.486Z,8.20
2019-03-15T02:27:47.755Z,8.20
2019-03-15T02:30:20.716Z,8.20
2019-03-15T02:33:14.520Z,8.30
2019-03-15T02:35:59.311Z,8.30
2019-03-15T02:38:42.317Z,8.30
2019-03-15T02:41:14.650Z,8.20
2019-03-15T02:43:46.177Z,8.30
2019-03-15T02:46:19.317Z,8.20
2019-03-15T02:48:48.993Z,8.30
2019-03-15T02:51:18.466Z,8.30
2019-03-15T02:53:49.758Z,8.30
2019-03-15T02:56:19.131Z,8.30
2019-03-15T02:58:49.028Z,8.30
2019-03-15T03:01:18.568Z,8.40
2019-03-15T03:03:48.392Z,8.40
2019-03-15T03:06:20.748Z,8.50
2019-03-15T03:08:54.391Z,8.40
2019-03-15T03:11:38.246Z,8.50
2019-03-15T03:14:12.083Z,8.50
2019-03-15T03:16:41.586Z,8.50
2019-03-15T03:19:13.113Z,8.40
2019-03-15T03:21:43.130Z,8.40
2019-03-15T03:24:36.887Z,8.40
2019-03-15T03:27:36.126Z,8.40
2019-03-15T03:30:06.175Z,8.40
2019-03-15T03:32:43.675Z,8.30
2019-03-15T03:35:12.349Z,8.30
2019-03-15T03:37:52.785Z,8.30
2019-03-15T03:40:22.297Z,8.30
2019-03-15T03:43:01.766Z,8.20
2019-03-15T03:45:38.483Z,8.20
2019-03-15T03:48:08.725Z,8.20
2019-03-15T03:50:40.636Z,8.10
2019-03-15T03:53:15.607Z,8.10
2019-03-15T03:56:03.460Z,8.10
2019-03-15T03:58:34.063Z,8.10
2019-03-15T04:01:03.721Z,8.00
2019-03-15T04:03:35.502Z,8.00
2019-03-15T04:06:18.722Z,8.00
2019-03-15T04:08:49.851Z,8.00
2019-03-15T04:11:19.790Z,8.00
2019-03-15T04:13:53.081Z,7.90
2019-03-15T04:16:34.185Z,7.90
2019-03-15T04:19:12.742Z,7.90
2019-03-15T04:21:55.310Z,7.80
2019-03-15T04:24:34.180Z,7.80
2019-03-15T04:27:26.007Z,7.80
2019-03-15T04:29:56.442Z,7.80
2019-03-15T04:32:41.523Z,7.80
2019-03-15T04:35:11.627Z,7.80
2019-03-15T04:38:05.513Z,7.70
2019-03-15T04:41:00.841Z,7.70
2019-03-15T04:43:48.351Z,7.70
2019-03-15T04:46:27.195Z,7.70
2019-03-15T06:17:07.875Z,7.60
2019-03-15T06:19:49.319Z,7.60
2019-03-15T06:22:21.821Z,7.60
2019-03-15T06:25:05.308Z,7.60
2019-03-15T06:27:34.924Z,7.60
2019-03-15T06:30:05.361Z,7.60
2019-03-15T06:32:35.330Z,7.60
2019-03-15T06:35:29.650Z,7.70
2019-03-15T06:38:15.419Z,7.70
2019-03-15T06:40:45.150Z,7.70
2019-03-15T06:43:14.867Z,7.80
2019-03-15T06:45:44.359Z,7.80
2019-03-15T06:48:13.962Z,7.80
2019-03-15T06:50:46.385Z,7.90
2019-03-15T06:53:16.484Z,7.90
2019-03-15T06:55:45.929Z,7.90
2019-03-15T06:58:15.367Z,8.00
2019-03-15T07:00:45.124Z,8.00
2019-03-15T07:03:14.538Z,8.10
2019-03-15T07:05:43.858Z,8.20
2019-03-15T07:08:14.935Z,8.30
2019-03-15T07:10:44.506Z,8.40
2019-03-15T07:13:15.428Z,8.70
2019-03-15T07:15:44.883Z,8.70
2019-03-15T07:18:14.335Z,8.90
2019-03-15T07:20:43.770Z,8.90
2019-03-15T07:23:17.304Z,8.90
2019-03-15T07:25:47.166Z,9.00
2019-03-15T07:28:16.490Z,9.20
2019-03-15T07:30:52.149Z,9.10
2019-03-15T07:33:23.217Z,9.20
2019-03-15T07:35:52.771Z,9.30
2019-03-15T07:38:23.278Z,9.30
2019-03-15T07:40:55.059Z,9.30
2019-03-15T07:43:24.458Z,9.40
2019-03-15T07:45:56.543Z,9.50
2019-03-15T07:48:27.012Z,9.50
2019-03-15T07:50:56.667Z,9.50
2019-03-15T07:53:29.171Z,9.50
2019-03-15T07:56:00.059Z,9.60
2019-03-15T07:58:29.707Z,9.60
2019-03-15T08:01:04.498Z,9.60
2019-03-15T08:03:34.067Z,9.70
2019-03-15T08:06:04.955Z,9.70
2019-03-15T08:08:34.814Z,9.70
2019-03-15T08:11:06.313Z,9.80
2019-03-15T08:13:36.324Z,9.80
2019-03-15T08:16:07.409Z,9.80
2019-03-15T08:18:41.590Z,9.80
2019-03-15T08:21:16.740Z,9.80
2019-03-15T08:23:48.561Z,9.80
2019-03-15T08:26:23.269Z,9.90
2019-03-15T08:29:03.119Z,9.90
2019-03-15T08:31:34.421Z,10.00
2019-03-15T08:34:03.877Z,10.00
2019-03-15T08:36:33.166Z,10.00
2019-03-15T08:39:03.921Z,10.10
2019-03-15T08:41:36.621Z,10.10
2019-03-15T08:44:08.620Z,10.20
2019-03-15T08:46:38.364Z,10.10
2019-03-15T08:49:08.076Z,10.20
2019-03-15T08:51:37.478Z,10.20
2019-03-15T08:54:07.191Z,10.20
2019-03-15T08:56:36.794Z,10.20
2019-03-15T08:59:09.305Z,10.20
2019-03-15T09:01:38.750Z,10.30
2019-03-15T09:04:08.180Z,10.30
2019-03-15T09:06:40.710Z,10.30
2019-03-15T09:09:09.481Z,10.40
2019-03-15T09:11:38.786Z,10.40
2019-03-15T09:14:08.194Z,10.40
2019-03-15T09:16:37.630Z,10.40
2019-03-15T09:19:06.978Z,10.50
2019-03-15T09:21:36.437Z,10.50
2019-03-15T09:24:05.846Z,10.60
2019-03-15T09:26:35.310Z,10.60
2019-03-15T09:29:04.846Z,10.60
2019-03-15T09:31:47.025Z,10.60
2019-03-15T09:34:06.971Z,10.70
2019-03-15T09:36:49.012Z,10.70
2019-03-15T09:39:07.937Z,10.80
2019-03-15T09:41:40.347Z,10.80
2019-03-15T09:44:10.077Z,10.80
2019-03-15T09:46:40.612Z,10.80
2019-03-15T09:49:11.130Z,10.80
2019-03-15T09:51:40.562Z,10.80
2019-03-15T09:54:12.446Z,10.80
2019-03-15T09:56:42.314Z,10.90
2019-03-15T09:59:14.594Z,10.90
2019-03-15T10:01:44.039Z,10.90
2019-03-15T10:04:13.574Z,10.90
2019-03-15T10:06:43.417Z,11.00
2019-03-15T10:09:17.528Z,11.00
2019-03-15T10:11:47.399Z,11.00
2019-03-15T10:14:17.145Z,11.00
2019-03-15T10:16:46.897Z,11.10
2019-03-15T10:19:16.370Z,11.10
2019-03-15T10:21:46.789Z,11.10
2019-03-15T10:24:17.883Z,11.10
2019-03-15T10:26:47.266Z,11.20
2019-03-15T10:29:19.553Z,11.20
2019-03-15T10:31:47.891Z,11.20
2019-03-15T10:34:22.427Z,11.30
2019-03-15T10:36:52.218Z,11.40
2019-03-15T10:39:24.693Z,11.40
2019-03-15T10:41:54.177Z,11.50
2019-03-15T10:44:31.931Z,11.60
2019-03-15T10:47:01.192Z,11.60
2019-03-15T10:49:36.785Z,11.70
2019-03-15T10:52:11.816Z,11.80
2019-03-15T10:54:42.387Z,11.80
2019-03-15T10:57:14.883Z,11.80
2019-03-15T10:59:47.241Z,11.80
2019-03-15T11:02:17.464Z,11.80
2019-03-15T11:04:49.002Z,11.80
2019-03-15T11:07:25.487Z,11.80
2019-03-15T11:09:58.334Z,11.90
2019-03-15T11:12:28.418Z,11.90
2019-03-15T11:14:58.052Z,11.90
2019-03-15T11:17:28.194Z,12.00
2019-03-15T11:20:02.217Z,12.10
2019-03-15T11:22:31.905Z,12.00
2019-03-15T11:25:01.462Z,12.10
2019-03-15T11:27:31.594Z,12.10
2019-03-15T11:30:01.852Z,12.20
2019-03-15T11:32:31.734Z,12.20
2019-03-15T11:35:01.461Z,12.20
2019-03-15T11:37:33.430Z,12.30
2019-03-15T11:40:03.279Z,12.30
2019-03-15T11:42:33.365Z,12.30
2019-03-15T11:45:02.779Z,12.30
2019-03-15T11:47:46.363Z,12.30
2019-03-15T11:50:08.138Z,12.40
2019-03-15T11:52:52.250Z,12.30
2019-03-15T11:55:24.088Z,12.30
2019-03-15T11:57:55.489Z,12.20
2019-03-15T12:00:25.740Z,12.30
2019-03-15T12:03:04.280Z,12.30
2019-03-15T12:05:36.861Z,12.40
2019-03-15T12:08:06.482Z,12.40
2019-03-15T12:10:36.264Z,12.50
2019-03-15T12:13:06.096Z,12.50
2019-03-15T12:15:36.481Z,12.50
2019-03-15T12:18:14.041Z,12.60
2019-03-15T12:20:44.294Z,12.70
2019-03-15T12:23:13.801Z,12.70
2019-03-15T12:25:43.870Z,12.80
2019-03-15T12:28:17.124Z,12.90
2019-03-15T12:30:47.245Z,13.00
2019-03-15T12:33:16.911Z,13.00
2019-03-15T12:35:49.723Z,13.00
2019-03-15T12:38:22.740Z,13.10
2019-03-15T12:40:52.264Z,13.00
2019-03-15T12:43:35.478Z,12.90
2019-03-15T12:46:10.247Z,12.80
2019-03-15T12:48:40.783Z,12.70
2019-03-15T12:51:10.609Z,12.60
2019-03-15T12:53:42.099Z,12.50
2019-03-15T12:56:11.873Z,12.50
2019-03-15T12:58:42.109Z,12.40
2019-03-15T13:01:13.041Z,12.40
2019-03-15T13:03:47.295Z,12.40
2019-03-15T13:06:26.523Z,12.30
2019-03-15T13:09:03.819Z,12.30
2019-03-15T13:11:40.435Z,12.30
2019-03-15T13:14:12.323Z,12.40
2019-03-15T13:16:43.955Z,12.40
2019-03-15T13:19:17.266Z,12.40
2019-03-15T13:21:51.568Z,12.30
2019-03-15T13:24:21.105Z,12.30
2019-03-15T13:27:06.644Z,12.30
2019-03-15T13:29:32.305Z,12.30
2019-03-15T13:31:59.101Z,12.20
2019-03-15T13:34:32.596Z,12.30
2019-03-15T13:37:02.037Z,12.20
2019-03-15T13:39:40.423Z,12.10
2019-03-15T13:42:10.630Z,12.10
2019-03-15T13:44:40.211Z,12.00
2019-03-15T13:50:06.086Z,11.90
2019-03-15T13:52:36.264Z,11.80
2019-03-15T13:55:09.399Z,11.80
2019-03-15T13:57:48.123Z,11.70
2019-03-15T14:00:19.402Z,11.70
2019-03-15T14:02:54.964Z,11.70
2019-03-15T14:05:25.043Z,11.70
2019-03-15T14:07:54.531Z,11.60
2019-03-15T14:10:26.869Z,11.60
2019-03-15T14:12:59.083Z,11.60
2019-03-15T14:15:29.625Z,11.50
2019-03-15T14:18:02.201Z,11.50
2019-03-15T14:20:31.741Z,11.50
2019-03-15T14:23:01.331Z,11.40
2019-03-15T14:25:31.035Z,11.40
2019-03-15T14:28:09.441Z,11.40
2019-03-15T14:30:41.583Z,11.30
2019-03-15T14:33:10.949Z,11.30
2019-03-15T14:35:51.838Z,11.30
2019-03-15T14:38:21.440Z,11.30
2019-03-15T14:40:58.255Z,11.20
2019-03-15T14:43:27.827Z,11.20
2019-03-15T14:45:57.464Z,11.20
2019-03-15T14:48:34.242Z,11.20
2019-03-15T14:51:18.216Z,11.20
2019-03-15T14:53:53.065Z,11.20
2019-03-15T14:56:27.230Z,11.20
2019-03-15T14:58:57.012Z,11.10
2019-03-15T15:01:26.714Z,11.10
2019-03-15T15:03:56.322Z,11.10
2019-03-15T15:06:28.849Z,11.10
2019-03-15T15:08:58.306Z,11.00
2019-03-15T15:11:27.811Z,11.00
2019-03-15T15:13:57.205Z,11.00
2019-03-15T15:16:29.770Z,11.00
2019-03-15T15:18:58.822Z,10.90
2019-03-15T15:21:28.167Z,10.90
2019-03-15T15:23:57.867Z,10.80
2019-03-15T15:26:30.440Z,10.80
2019-03-15T15:28:59.942Z,10.80
2019-03-15T15:31:29.880Z,10.80
2019-03-15T15:33:59.239Z,10.70
2019-03-15T15:36:28.659Z,10.70
2019-03-15T15:38:58.109Z,10.60
2019-03-15T15:41:27.813Z,10.70
2019-03-15T15:43:57.207Z,10.60
2019-03-15T15:46:29.554Z,10.60
2019-03-15T15:48:58.998Z,10.70
2019-03-15T15:51:28.452Z,10.70
2019-03-15T15:53:57.964Z,10.70
2019-03-15T15:56:30.374Z,10.70
2019-03-15T15:59:03.321Z,10.70
2019-03-15T16:01:35.401Z,10.70
2019-03-15T16:04:04.774Z,10.70
2019-03-15T16:06:34.183Z,10.70
2019-03-15T16:09:04.112Z,10.70
2019-03-15T16:11:33.619Z,10.70
2019-03-15T16:14:07.334Z,10.70
2019-03-15T16:16:36.762Z,10.70
2019-03-15T16:19:06.463Z,10.60
2019-03-15T16:21:39.448Z,10.60
2019-03-15T16:24:08.826Z,10.60
2019-03-15T16:26:38.729Z,10.60
2019-03-15T16:29:08.343Z,10.60
2019-03-15T16:31:38.907Z,10.50
2019-03-15T16:34:08.510Z,10.50
2019-03-15T16:36:37.898Z,10.50
2019-03-15T16:39:08.194Z,10.50
2019-03-15T16:41:40.931Z,10.50
2019-03-15T16:44:18.863Z,10.50
2019-03-15T16:46:48.317Z,10.50
2019-03-15T16:49:17.964Z,10.40
2019-03-15T16:51:49.745Z,10.50
2019-03-15T16:54:25.506Z,10.40
2019-03-15T16:56:58.666Z,10.40
2019-03-15T16:59:43.572Z,10.40
2019-03-15T17:02:13.449Z,10.40
2019-03-15T17:04:43.254Z,10.30
2019-03-15T17:07:17.477Z,10.30
2019-03-15T17:09:49.976Z,10.30
2019-03-15T17:12:23.958Z,10.30
2019-03-15T17:14:54.900Z,10.30
2019-03-15T17:17:33.912Z,10.30
2019-03-15T17:20:34.623Z,10.20
2019-03-15T17:26:36.973Z,10.10
2019-03-15T17:29:23.666Z,10.10
2019-03-15T17:32:04.648Z,10.10
2019-03-15T17:35:00.566Z,10.10
2019-03-15T17:37:36.419Z,10.00
2019-03-15T17:40:34.844Z,10.00
2019-03-15T17:43:07.959Z,10.00
2019-03-15T17:45:39.101Z,10.00
2019-03-15T17:48:15.435Z,10.00
2019-03-15T17:50:47.178Z,9.90
2019-03-15T17:53:17.143Z,9.90
2019-03-15T17:55:51.423Z,9.80
2019-03-15T17:58:29.131Z,9.80
2019-03-15T18:01:09.356Z,9.70
2019-03-15T18:03:42.713Z,9.70
2019-03-15T18:06:12.319Z,9.60
2019-03-15T18:08:41.994Z,9.60
2019-03-15T18:11:11.539Z,9.50
2019-03-15T18:13:44.261Z,9.50
2019-03-15T18:16:13.871Z,9.50
2019-03-15T18:18:46.281Z,9.50
2019-03-15T18:21:19.415Z,9.40
2019-03-15T18:23:49.344Z,9.40
2019-03-15T18:26:35.368Z,9.40
2019-03-15T18:29:07.632Z,9.40
2019-03-15T18:31:37.215Z,9.30
2019-03-15T18:34:06.726Z,9.30
2019-03-15T18:36:37.707Z,9.30
2019-03-15T18:39:08.750Z,9.20
2019-03-15T18:41:38.295Z,9.20
2019-03-15T18:44:07.842Z,9.20
2019-03-15T18:46:51.912Z,9.20
2019-03-15T18:49:26.082Z,9.20
2019-03-15T18:52:36.820Z,9.20
2019-03-15T18:55:57.953Z,9.10
2019-03-15T19:01:52.793Z,9.10
2019-03-15T19:07:12.652Z,9.00
2019-03-15T19:10:15.032Z,8.90
2019-03-15T19:13:07.923Z,8.90
2019-03-15T19:15:58.470Z,8.90
2019-03-15T19:18:35.092Z,8.90
2019-03-15T19:21:14.181Z,8.90
2019-03-15T19:23:47.759Z,8.90
2019-03-15T19:26:19.835Z,8.80
2019-03-15T19:28:53.195Z,8.80
2019-03-15T19:31:32.818Z,8.80
2019-03-15T19:34:28.071Z,8.70
2019-03-15T19:37:01.146Z,8.70
2019-03-15T19:39:30.746Z,8.70
2019-03-15T19:42:02.649Z,8.70
2019-03-15T19:44:34.132Z,8.70
2019-03-15T19:47:56.494Z,8.70
2019-03-15T19:50:30.065Z,8.60
2019-03-15T19:53:07.088Z,8.60
2019-03-15T19:55:39.355Z,8.60
2019-03-15T19:58:08.958Z,8.60
2019-03-15T20:01:28.957Z,8.60
2019-03-15T20:04:01.353Z,8.60
2019-03-15T20:06:33.881Z,8.50
2019-03-15T20:09:06.166Z,8.50
2019-03-15T20:11:36.323Z,8.50
2019-03-15T20:14:08.526Z,8.50
2019-03-15T20:16:38.142Z,8.50
2019-03-15T20:19:11.949Z,8.50
2019-03-15T20:21:41.551Z,8.40
2019-03-15T20:24:14.134Z,8.50
2019-03-15T20:26:45.888Z,8.40
2019-03-15T20:29:15.522Z,8.40
2019-03-15T20:31:48.070Z,8.40
2019-03-15T20:34:20.756Z,8.40
2019-03-15T20:36:58.445Z,8.40
2019-03-15T22:01:16.109Z,8.90
2019-03-15T22:04:02.624Z,8.90
2019-03-15T22:07:00.346Z,8.90
2019-03-15T22:10:13.871Z,8.90
2019-03-15T22:13:35.017Z,8.90
2019-03-15T22:16:22.922Z,9.00
2019-03-15T22:22:03.460Z,8.90
